Immagine casuale
Testata Regione Lazio ARSIAL SIARL

Ultima Misura Rilevata

Temperatura, Umidità, Pioggia, Pressione Radiazione Solare, Venti, Evapotraspirazione, ecc.
Temperature diurne e notturne Direzione vento Legenda
Prov Stazione Data TMin TMed TMax UMed Pioggia PMed
FR ALATRI Basciano 21/10/2018 8,5 15,7 25,2 75 12,8 1.015
FR ALVITO Az. Ist. S. Benedetto 21/10/2018 9,2 14,1 22,5 85 34 1.018
FR ANAGNI La Gloria 21/10/2018 9,8 15,3 23,3 87 7 1.017
FR ARPINO Vigne Piane 21/10/2018 8,7 14,2 22 80 38,4 1.015
FR BOVILLE ERNICA Sasso 21/10/2018 9,6 15,6 25,4 56 35,4 1.017
FR ESPERIA Modale 21/10/2018 10,4 15,6 24,9 79 27,8 1.015
FR PASTENA Acero 21/10/2018 7,2 14,4 24,8 79 24 1.015
FR PIGLIO Civitella 21/10/2018 8,2 15 24,5 85 6,4 1.018
FR PONTECORVO Melfi di Sotto 21/10/2018 9,6 15,1 25 83 21,8 ----
FR S. ELIA FIUMERAPIDO Portella 21/10/2018 10,4 15,8 24,9 78 25,6 1.017
FR S. GIORGIO A LIRI Porto 21/10/2018 9,6 15,4 26,3 81 37,6 1.014
FR SGURGOLA Campo Lungo 21/10/2018 9,9 15,3 23,7 84 10,1 ----
FR VALLECORSA Serbatoio comunale 21/10/2018 9,3 15 22,3 80 19,8 1.018
LT APRILIA Le Ferriere 21/10/2018 10,8 17,2 24,5 84 25,4 1.016
LT CISTERNA B.go Carso 21/10/2018 10,2 16,4 22,8 89 0 ----
LT CISTERNA Doganella di Ninfa 21/10/2018 10 17,4 25,5 81 14,8 1.015
LT CORI Portone 21/10/2018 10,1 17,4 24,9 78 10,2 1.017
LT FONDI Capratica 21/10/2018 11,4 16,8 25,1 79 14,8 1.016
LT FORMIA Loc. Gianola 21/10/2018 11,1 16,6 23,4 74 17,6 ----
LT ITRI Valle Quercia 21/10/2018 11 17,3 23,3 66 22,4 1.014
LT MAENZA Casacotta 21/10/2018 12,3 17,2 25 79 9,8 1.012
LT MINTURNO Pulcherini 21/10/2018 10,4 17,9 25,5 65 27,4 1.016
LT PONTINIA Cotarda 21/10/2018 11,4 17,4 25,7 77 21,6 1.015
LT SABAUDIA Acquaviva 21/10/2018 12,3 17,4 24,7 82 20 1.015
LT SONNINO Frasso 21/10/2018 11,8 19,1 27 65 18,2 1.015
RI ACCUMOLI Terracino 21/10/2018 1,9 7,7 14,5 80 9,8 1.020
RI BORGOVELINO Ponte Basso 21/10/2018 8,1 13,4 22,8 68 3,6 1.014
RI CANTALUPO S. Francesco 21/10/2018 7,4 14,4 21,7 77 0,4 ----
RI CASTEL DI TORA Monte di Tora 21/10/2018 8,4 13,7 24,2 77 0,8 1.014
RI CASTELNUOVO FARFA C. Spadone 21/10/2018 11,2 16,7 22,4 71 1 ----
RI CONFIGNI Portella 21/10/2018 9,1 14,6 22,9 72 2,6 1.021
RI FARA SABINA Canneto 21/10/2018 10,9 16 22,9 72 45 1.013
RI FARA SABINA Sant'Andrea 21/10/2018 11,1 15,7 22,3 74 5,4 ----
RI MONTELEONE S. Prato Camino 21/10/2018 7,9 14,4 23,2 79 1 1.016
RI MONTOPOLI IN SABINA Colle Arcone 21/10/2018 11,1 15,4 22 81 0,2 ----
RI MONTOPOLI IN SABINA Villa Caprola 21/10/2018 11,7 16,8 26,1 83 0,7 ----
RI POGGIO CATINO Pastine 21/10/2018 10,2 15,3 21,8 86 1,2 ----
RI POGGIO NATIVO Casali 21/10/2018 9 15 20,8 81 5,1 ----
RI RIETI Piana di Rieti 21/10/2018 2,8 11,9 20,7 70 1,1 1.018
RI SCANDRIGLIA Ponticelli 21/10/2018 N.D. N.D. N.D. N.D. N.D. ----
RM AGOSTA La Cisterna 21/10/2018 8,4 13,2 20,8 91 5,8 1.014
RM BRACCIANO Prato Pianciano 21/10/2018 11,1 16,7 23,6 68 0,2 1.012
RM CANALE MONTERANO Monte Virginio 21/10/2018 6,7 13,8 24,9 82 0,8 1.014
RM CERVETERI Campo di Mare 21/10/2018 12,5 18 23,1 64 3,6 ----
RM CIVITELLA S.PAOLO Le Cese 21/10/2018 10 15,1 23,6 73 0 1.015
RM FIUMICINO Maccarese 21/10/2018 10 16,5 25,4 83 23,2 1.016
RM FIUMICINO Testa di Lepre 21/10/2018 11,8 17,2 24,3 68 2,8 ----
RM FORMELLO Perazzeta 21/10/2018 11,8 16,9 22,9 67 0,3 ----
RM FRASCATI Prata Porci 21/10/2018 9,8 15,9 24,7 85 9,8 1.016
RM GENAZZANO Coop. La Sonnina 21/10/2018 9,8 15,4 22,6 84 8,4 1.016
RM GROTTAFERRATA Valle Marciana 21/10/2018 10,7 16,1 23,7 81 19,6 1.015
RM LICENZA Colle Franco 21/10/2018 9,3 14 21,9 81 10,2 1.015
RM MARCELLINA V. Campetella 21/10/2018 11,3 16,1 23,2 83 5 ----
RM MARINO Gotto d'Oro 21/10/2018 8,8 16,6 26 87 35,6 1.018
RM MONTECOMPATRI Colle Mattia 21/10/2018 9,6 15,7 24,8 84 23,6 1.016
RM MONTECOMPATRI Pantano Borghese 21/10/2018 8 15,7 25,9 79 16 1.013
RM MONTELIBRETTI Bruciati 21/10/2018 9,3 15,5 23,9 80 20,5 ----
RM MONTEPORZIO Camaldoli 21/10/2018 8,6 14,2 20,2 88 10,8 1.017
RM MONTEROTONDO Grotta Marozza 21/10/2018 11,7 16 23,3 72 5 1.016
RM PALOMBARA Fonte Grande 21/10/2018 7,5 14,2 22,5 78 11,2 ----
RM ROMA Capocotta 21/10/2018 11 16,8 23,6 85 28,8 ----
RM ROMA Ponte di Nona 21/10/2018 11,1 16,6 24,1 84 44,8 1.017
RM ROMA Via Lanciani 38 21/10/2018 12,9 17,5 23,8 75 42,3 1.015
RM S. GREGORIO C. Faustiniano 21/10/2018 9,4 15,7 23,4 81 18,2 1.015
RM VELLETRI Cantina Sperimentale 21/10/2018 10,6 16,6 24,2 82 23,8 1.014
RM VELLETRI Prato Lungo 21/10/2018 12,4 18 24,2 79 23,6 ----
RM ZAGAROLO Santa Apollara 21/10/2018 N.D. N.D. N.D. N.D. N.D. ----
VT ACQUAPENDENTE Falconiera 21/10/2018 7,5 13,9 23,7 66 1 1.016
VT BAGNOREGIO Castell Cellesi 21/10/2018 8,9 14,6 21 61 0,6 ----
VT BASSANO R. Piano Mola 21/10/2018 7,9 14,6 22,1 73 0 1.014
VT BLERA Puntoni 21/10/2018 7,7 14,6 23,5 75 2,2 1.015
VT BOLSENA Capone 21/10/2018 8,8 15,4 25,8 60 0,8 1.013
VT BOLSENA Rentica 21/10/2018 9,1 15,2 22,6 56 0,8 ----
VT CANINO Diga Timone 21/10/2018 8,3 15,6 25,1 66 0 1.016
VT CANINO Pianacce 21/10/2018 8,1 16,4 24,3 61 0 1.016
VT CANINO San Valeriano 21/10/2018 10,3 16,8 24,6 56 0,8 ----
VT CELLENO Acquaforte 21/10/2018 9 14,8 21,9 68 1,4 ----
VT CORCHIANO Pantalone 21/10/2018 9,9 15,9 25,3 65 0,2 1.015
VT FARNESE Gressa 21/10/2018 9,1 15,3 22,6 50 0,2 ----
VT FARNESE Pian di Sala 21/10/2018 8,1 14,9 24,2 63 0,2 ----
VT GROTTE DI CASTRO Borghetto 21/10/2018 8,9 15,2 22,9 62 0,4 1.018
VT GROTTE DI CASTRO Purgatorio 21/10/2018 7,1 13,8 23 66 0,8 1.019
VT LATERA Centro Florovivaistico 21/10/2018 8,4 15,1 24,4 65 0 1.018
VT MONTALTO Le Murelle 21/10/2018 8,4 15,7 22,8 70 0,6 1.017
VT MONTALTO Pescia Romana 21/10/2018 10,5 17,4 24,6 60 0 1.016
VT MONTEFIASCONE Commenda 21/10/2018 9,7 15,8 22,9 62 1,1 ----
VT RONCIGLIONE Ponterotto 21/10/2018 9 15,3 22,8 63 0,2 ----
VT SORIANO CIMINO Pantane 21/10/2018 6,9 13,8 23,8 73 0 1.014
VT SORIANO CIMINO Poggio di Chia 21/10/2018 8,5 14,5 22,6 74 1,4 ----
VT TARQUINIA Portaccia 21/10/2018 10,2 16,7 23,9 71 7 ----
VT TUSCANIA Montebello 21/10/2018 10,7 15,8 23,3 67 0,6 ----
VT VETRALLA Marchionato 21/10/2018 8,5 15,1 22,3 71 0,6 ----
VT VITERBO Pisello 21/10/2018 9,5 15,7 22,9 61 0,4 ----
N.D. = Dati Non Disponibili
---- = Sensore non presente

Le misure esposte sono grezze, ovvero non sono state validate